CheckWX is a tool to help pilots better visualize weather data.  It is not intended as a substitute for an official pre-flight weather briefing.

02:57:02 UTC

EGPE METAR
Inverness Airport
Inverness, United Kingdom
Current

37 mins ago

EGPE 230220Z AUTO 23001KT 9000 NCD 13/13 Q1002
Observed
Sep-23 @ 02:20 UTC
Wind
  • 230° at 1 KTS
Visibility
9,000 meters
Flight Rules
VFR
Cloud Levels
  • Clear skies
Temperature
13°C / 55°F
Dewpoint
13°C / 55°F
Humidity
100%
Altimeter
29.59" Hg
Pressure
1001.92 hPa
Previous

1 hour ago

EGPE 230150Z AUTO VRB01KT 9999 FEW006/// 13/13 Q1002
Observed
Sep-23 @ 01:50 UTC
Wind
  • Variable at 1 KTS
Visibility
10,000+ meters
Flight Rules
VFR
Cloud Levels
  • Few at 600' AGL
Temperature
13°C / 55°F
Dewpoint
13°C / 55°F
Humidity
100%
Altimeter
29.59" Hg
Pressure
1001.92 hPa
Previous

2 hours ago

EGPE 230120Z AUTO VRB02KT 9999 BKN006/// 13/13 Q1002
Observed
Sep-23 @ 01:20 UTC
Wind
  • Variable at 2 KTS
Visibility
10,000+ meters
Flight Rules
IFR
Cloud Levels
  • Broken at 600' AGL
Temperature
13°C / 55°F
Dewpoint
13°C / 55°F
Humidity
100%
Altimeter
29.59" Hg
Pressure
1001.92 hPa